Impacts TAF Board
For situational awareness. Not to be used for flight planning purposes.
IDs:

KGCN - Grand Canyon Park Ar, AZ, US

Issued at 1720 UTC 02 Aug 2021
Updated at 2117 UTC 02 Aug 2021
Potential Impact None Slight Moderate High
Time2054Z 02/22Z 02/23Z 03/00Z 03/01Z 03/02Z 03/03Z 03/04Z 03/05Z 03/06Z 03/07Z 03/08Z 03/09Z 03/10Z>>
Type OBS PRVL PRVL PRVL PRVL PRVL PRVL PRVL PRVL PRVL PRVL PRVL PRVL PRVL
VIS 10 >6 >6 >6 >6 >6 >6 >6 >6 >6 >6 >6 >6 >6
CIG -- -- -- -- -- -- -- -- -- -- -- -- -- --
Cover CLR FEW FEW FEW FEW FEW SKC SKC SKC SKC SKC SKC SKC SKC
FltCat VFR VFR VFR VFR VFR VFR VFR VFR VFR VFR VFR VFR VFR VFR
WX -- -- -- -- -- -- -- -- -- -- -- -- -- --
WDir 280 310 310 310 310 310 VRB VRB VRB VRB VRB VRB VRB VRB
WSpd 10 9 9 9 9 9 5 5 5 5 5 5 5 5
WGst 16 15 15 15 15 15 -- -- -- -- -- -- -- --
Raw TAF
KGCN 021720Z 0218/0318 VRB05KT P6SM SKC
  FM022000 31009G15KT P6SM FEW110 FEW250
  FM030300 VRB05KT P6SM SKC


Raw METAR
KGCN 022054Z 28010G16KT 10SM CLR 28/07 A3038 RMK AO2 SLP184 T02780072 56014
KGCN 021954Z VRB04G14KT 10SM CLR 27/06 A3040 RMK AO2 LTG DSNT NE SLP187 T02720061
KGCN 021854Z VRB06KT 10SM FEW065 27/10 A3041 RMK AO2 SLP194 T02670100

METAR Board
Radar Display
Forecast Discussion
For situational awareness. Not to be used for flight planning purposes.